Time;durP1;ratioP1;P1;durP2;ratioP2;P2;SDS_P1;SDS_P2;PMS_P1;PMS_P2;Temp;Humidity;BMP_temperature;BMP_pressure;BME280_temperature;BME280_humidity;BME280_pressure;Samples;Min_cycle;Max_cycle;Signal;HPM_P1;HPM_P2
2023/01/02 00:00:53;;;;;;;17.67;5.30;;;9.40;99.90;;;;;;5059123;28;20068;-75
2023/01/02 00:03:19;;;;;;;12.48;4.97;;;9.40;99.90;;;;;;5059630;28;20044;-75
2023/01/02 00:05:44;;;;;;;14.38;5.20;;;9.40;99.90;;;;;;5058145;28;20040;-75
2023/01/02 00:08:10;;;;;;;14.70;5.28;;;9.40;99.90;;;;;;5043890;28;20102;-75
2023/01/02 00:10:36;;;;;;;14.13;5.53;;;9.40;99.90;;;;;;5053572;28;20044;-75
2023/01/02 00:13:01;;;;;;;16.10;5.25;;;9.40;99.90;;;;;;5071257;28;20049;-75
2023/01/02 00:15:27;;;;;;;15.45;5.40;;;9.40;99.90;;;;;;5060590;28;20040;-75
2023/01/02 00:17:53;;;;;;;13.88;5.65;;;9.50;99.90;;;;;;5054306;28;20111;-75
2023/01/02 00:20:18;;;;;;;15.52;5.40;;;9.50;99.90;;;;;;5060037;28;20095;-76
2023/01/02 00:22:44;;;;;;;17.33;6.13;;;9.50;99.90;;;;;;5057375;28;20594;-75
2023/01/02 00:25:09;;;;;;;12.15;5.90;;;9.50;99.90;;;;;;5046289;28;20036;-76
2023/01/02 00:27:35;;;;;;;15.48;6.13;;;9.50;99.90;;;;;;5057448;28;20049;-75
2023/01/02 00:30:00;;;;;;;18.27;7.75;;;9.60;99.90;;;;;;5061944;28;20052;-75
2023/01/02 00:32:26;;;;;;;20.33;7.95;;;9.60;99.90;;;;;;5058105;28;20408;-75
2023/01/02 00:34:52;;;;;;;19.42;8.30;;;9.60;99.90;;;;;;5055272;28;20492;-75
2023/01/02 00:37:17;;;;;;;18.10;8.35;;;9.70;99.90;;;;;;5059175;28;20123;-75
2023/01/02 00:39:43;;;;;;;16.35;8.10;;;9.70;99.90;;;;;;5058487;28;20040;-75
2023/01/02 00:42:09;;;;;;;18.77;8.75;;;9.80;99.90;;;;;;5059679;28;20063;-75
2023/01/02 00:44:34;;;;;;;18.75;8.07;;;9.80;99.90;;;;;;5062388;28;20040;-76
2023/01/02 00:47:00;;;;;;;17.23;8.43;;;9.80;99.90;;;;;;5059551;28;20114;-75
2023/01/02 00:49:26;;;;;;;18.20;8.52;;;9.90;99.90;;;;;;5039506;28;20029;-75
2023/01/02 00:51:51;;;;;;;18.42;8.38;;;9.90;99.90;;;;;;5059895;28;20397;-75
2023/01/02 00:54:17;;;;;;;16.23;8.43;;;9.90;99.90;;;;;;5059612;28;20040;-75
2023/01/02 00:56:42;;;;;;;17.02;7.38;;;10.00;99.90;;;;;;5063004;28;20102;-76
2023/01/02 00:59:08;;;;;;;14.57;7.63;;;10.00;99.90;;;;;;5065024;28;20029;-76
2023/01/02 01:01:33;;;;;;;13.68;7.03;;;10.10;99.90;;;;;;5061068;28;20110;-76
2023/01/02 01:04:00;;;;;;;15.77;7.90;;;10.10;99.90;;;;;;5062864;28;20040;-75
2023/01/02 01:06:25;;;;;;;12.88;7.03;;;10.20;99.90;;;;;;5062499;28;20040;-75
2023/01/02 01:08:51;;;;;;;16.58;8.20;;;10.20;99.90;;;;;;5063695;28;20044;-75
2023/01/02 01:11:16;;;;;;;13.75;7.50;;;10.20;99.90;;;;;;5061849;28;20044;-75
2023/01/02 01:13:43;;;;;;;14.55;7.85;;;10.20;99.90;;;;;;5068738;28;20040;-75
2023/01/02 01:16:14;;;;;;;12.45;7.30;;;10.30;99.90;;;;;;5050271;28;20043;-75
2023/01/02 01:18:40;;;;;;;12.93;7.30;;;10.30;99.90;;;;;;5066864;28;20064;-75
2023/01/02 01:21:18;;;;;;;13.18;7.22;;;10.30;99.90;;;;;;5052392;28;20427;-75
2023/01/02 01:23:48;;;;;;;14.85;7.72;;;10.30;99.90;;;;;;5049210;28;20045;-76
2023/01/02 01:26:14;;;;;;;14.90;7.60;;;10.40;99.90;;;;;;5066062;28;20490;-75
2023/01/02 01:28:40;;;;;;;14.27;8.00;;;10.40;99.90;;;;;;5065238;28;20357;-75
2023/01/02 01:31:11;;;;;;;17.42;8.35;;;10.40;99.90;;;;;;5063342;28;20543;-75
2023/01/02 01:33:37;;;;;;;16.73;8.05;;;10.40;99.90;;;;;;5062469;28;20195;-76
2023/01/02 01:36:15;;;;;;;18.50;8.57;;;10.40;99.90;;;;;;5051811;28;20044;-75
2023/01/02 01:38:42;;;;;;;17.15;8.57;;;10.40;99.90;;;;;;5067046;28;20037;-75
2023/01/02 01:41:09;;;;;;;19.23;9.20;;;10.40;99.90;;;;;;5065481;28;20114;-75
2023/01/02 01:43:48;;;;;;;17.25;9.38;;;10.50;99.90;;;;;;5050902;28;20138;-75
2023/01/02 01:46:22;;;;;;;16.63;8.98;;;10.50;99.90;;;;;;5081521;28;20047;-75
2023/01/02 01:48:53;;;;;;;18.90;9.52;;;10.50;99.90;;;;;;5063311;28;20033;-75
2023/01/02 01:51:19;;;;;;;19.73;9.63;;;10.50;99.90;;;;;;5067306;28;20044;-75
2023/01/02 01:53:48;;;;;;;19.48;10.45;;;10.50;99.90;;;;;;5065308;28;20045;-75
2023/01/02 01:56:13;;;;;;;23.65;10.90;;;10.50;99.90;;;;;;5061939;28;20071;-76
2023/01/02 01:58:43;;;;;;;19.33;11.25;;;10.60;99.90;;;;;;5082968;28;20554;-76
2023/01/02 02:01:12;;;;;;;20.08;11.02;;;10.60;99.90;;;;;;5060502;28;20047;-76
2023/01/02 02:03:41;;;;;;;21.40;11.82;;;10.60;99.90;;;;;;5048937;28;20048;-76
2023/01/02 02:06:07;;;;;;;24.10;12.70;;;10.60;99.90;;;;;;5064984;28;20964;-76
2023/01/02 02:08:46;;;;;;;24.65;12.50;;;10.60;99.90;;;;;;5049089;28;20071;-75
2023/01/02 02:11:13;;;;;;;22.63;12.88;;;10.60;99.90;;;;;;5079199;28;20052;-75
2023/01/02 02:13:39;;;;;;;24.05;12.55;;;10.60;99.90;;;;;;5066715;28;20676;-76
2023/01/02 02:16:17;;;;;;;23.02;12.32;;;10.60;99.90;;;;;;5050548;28;20124;-76
2023/01/02 02:19:12;;;;;;;24.10;12.70;;;10.70;99.90;;;;;;5063133;28;20045;-75
2023/01/02 02:21:56;;;;;;;;;;;10.70;99.90;;;;;;5080935;28;20042;-76
2023/01/02 02:24:24;;;;;;;23.55;12.40;;;10.70;99.90;;;;;;5063707;28;19970;-75
2023/01/02 02:27:07;;;;;;;23.23;12.73;;;10.70;99.90;;;;;;5063545;28;20054;-76
2023/01/02 02:29:50;;;;;;;22.98;12.27;;;10.70;99.90;;;;;;5080162;28;20097;-75
2023/01/02 02:32:39;;;;;;;19.27;11.35;;;10.80;99.90;;;;;;5061160;28;20051;-76
2023/01/02 02:35:22;;;;;;;20.65;12.52;;;10.80;99.90;;;;;;5046567;28;20075;-75
2023/01/02 02:38:10;;;;;;;20.92;12.55;;;10.80;99.90;;;;;;5065733;28;20044;-75
2023/01/02 02:40:41;;;;;;;22.20;13.80;;;10.80;99.90;;;;;;5067503;28;20052;-75
2023/01/02 02:43:23;;;;;;;22.42;12.73;;;10.90;99.90;;;;;;5081614;28;20496;-76
2023/01/02 02:46:13;;;;;;;22.67;13.85;;;10.90;99.90;;;;;;5065441;28;20076;-75
2023/01/02 02:49:05;;;;;;;23.75;13.60;;;10.90;99.90;;;;;;5068043;28;20044;-76
2023/01/02 02:52:01;;;;;;;22.13;12.48;;;10.90;99.90;;;;;;5065503;28;20040;-75
2023/01/02 02:54:36;;;;;;;23.00;12.25;;;11.00;99.90;;;;;;5060421;28;20055;-76
2023/01/02 02:57:03;;;;;;;23.50;13.25;;;11.00;99.90;;;;;;5064592;28;20209;-75
2023/01/02 02:59:29;;;;;;;23.13;12.98;;;11.00;99.90;;;;;;5063476;28;20045;-75
2023/01/02 03:01:55;;;;;;;19.80;11.82;;;11.00;99.90;;;;;;5059928;28;20106;-75
2023/01/02 03:04:22;;;;;;;25.98;13.20;;;11.00;99.90;;;;;;5066394;28;20072;-75
2023/01/02 03:07:07;;;;;;;23.40;13.68;;;11.00;99.90;;;;;;5065073;28;20079;-75
2023/01/02 03:09:52;;;;;;;24.70;13.35;;;11.00;99.90;;;;;;5063852;28;20054;-75
2023/01/02 03:12:32;;;;;;;24.27;13.60;;;11.00;99.90;;;;;;5064526;28;20037;-76
2023/01/02 03:15:20;;;;;;;21.60;12.23;;;11.00;99.90;;;;;;5047667;28;20486;-73
2023/01/02 03:17:54;;;;;;;24.40;13.20;;;11.00;99.90;;;;;;5047011;28;20051;-74
2023/01/02 03:20:24;;;;;;;19.77;12.43;;;11.00;99.90;;;;;;5060894;28;20103;-74
2023/01/02 03:22:54;;;;;;;23.20;11.98;;;11.10;99.90;;;;;;5065083;28;20457;-73
2023/01/02 03:25:21;;;;;;;20.33;12.38;;;11.10;99.90;;;;;;5063190;28;20055;-73
2023/01/02 03:27:48;;;;;;;23.58;12.70;;;11.10;99.90;;;;;;5064078;28;20072;-74
2023/01/02 03:30:18;;;;;;;19.27;11.90;;;11.10;99.90;;;;;;5049471;28;20036;-73
2023/01/02 03:32:59;;;;;;;24.08;14.20;;;11.10;99.90;;;;;;5077470;28;20044;-73
2023/01/02 03:35:30;;;;;;;21.27;13.38;;;11.10;99.90;;;;;;5061724;28;20040;-74
2023/01/02 03:37:58;;;;;;;23.60;13.98;;;11.10;99.90;;;;;;5065743;28;20036;-73
2023/01/02 03:40:43;;;;;;;23.90;15.18;;;11.10;99.90;;;;;;5078502;28;20121;-74
2023/01/02 03:43:13;;;;;;;22.55;12.27;;;11.10;99.90;;;;;;5076468;28;20408;-74
2023/01/02 03:45:45;;;;;;;28.20;14.63;;;11.20;99.90;;;;;;5044780;28;20461;-74
2023/01/02 03:48:48;;;;;;;26.83;15.48;;;11.20;99.90;;;;;;5060716;28;20040;-73
2023/01/02 03:51:13;;;;;;;28.80;15.60;;;11.20;99.90;;;;;;5061631;28;20075;-74
2023/01/02 03:53:39;;;;;;;25.27;15.23;;;11.20;99.90;;;;;;5064764;28;20403;-74
2023/01/02 03:56:14;;;;;;;26.52;15.77;;;11.20;99.90;;;;;;5062597;28;20090;-74
2023/01/02 03:59:11;;;;;;;27.45;16.10;;;11.20;99.90;;;;;;5046330;28;20063;-74
2023/01/02 04:01:46;;;;;;;29.88;15.18;;;11.20;99.90;;;;;;5023032;28;20689;-74
2023/01/02 04:04:19;;;;;;;28.67;15.00;;;11.20;99.90;;;;;;5043688;28;20385;-74
2023/01/02 04:06:51;;;;;;;26.85;14.05;;;11.20;99.90;;;;;;5026832;28;20063;-74
2023/01/02 04:09:21;;;;;;;31.45;14.88;;;11.20;99.90;;;;;;5027752;28;20432;-74
2023/01/02 04:11:51;;;;;;;30.20;14.18;;;11.20;99.90;;;;;;5025490;28;20063;-74
2023/01/02 04:14:26;;;;;;;31.23;15.60;;;11.20;99.90;;;;;;5026759;28;20231;-74
2023/01/02 04:16:54;;;;;;;30.73;15.85;;;11.20;99.90;;;;;;5029402;28;20293;-76
2023/01/02 04:19:26;;;;;;;30.35;16.77;;;11.20;99.90;;;;;;5012208;28;20169;-76
2023/01/02 04:21:57;;;;;;;27.05;15.57;;;11.20;99.90;;;;;;5027499;28;20208;-76
2023/01/02 04:24:32;;;;;;;33.00;16.73;;;11.20;99.90;;;;;;5027407;28;20390;-74
2023/01/02 04:27:13;;;;;;;28.63;15.93;;;11.20;99.90;;;;;;5024828;28;20040;-74
2023/01/02 04:29:39;;;;;;;34.40;17.08;;;11.20;99.90;;;;;;5026113;28;20124;-74
2023/01/02 04:32:18;;;;;;;36.78;16.90;;;11.20;99.90;;;;;;5026352;28;20053;-74
2023/01/02 04:34:45;;;;;;;30.58;16.23;;;11.30;99.90;;;;;;5025026;28;20044;-74
2023/01/02 04:37:26;;;;;;;30.25;16.50;;;11.20;99.90;;;;;;5012956;28;20492;-74
2023/01/02 04:39:55;;;;;;;30.60;15.55;;;11.20;99.90;;;;;;5061118;28;20428;-74
2023/01/02 04:42:21;;;;;;;30.77;16.67;;;11.20;99.90;;;;;;5061940;28;20167;-74
2023/01/02 04:44:46;;;;;;;30.15;15.77;;;11.30;99.90;;;;;;5063102;28;20142;-74
2023/01/02 04:47:12;;;;;;;29.27;15.55;;;11.30;99.90;;;;;;5063544;28;20047;-74
2023/01/02 04:49:38;;;;;;;33.85;17.52;;;11.20;99.90;;;;;;5061216;28;20186;-73
2023/01/02 04:52:03;;;;;;;29.92;15.35;;;11.30;99.90;;;;;;5044308;28;20040;-73
2023/01/02 04:54:29;;;;;;;27.30;14.20;;;11.30;99.90;;;;;;5048030;28;20086;-74
2023/01/02 04:56:54;;;;;;;24.60;14.27;;;11.20;99.90;;;;;;5047837;28;20033;-74
2023/01/02 04:59:20;;;;;;;30.63;15.43;;;11.30;99.90;;;;;;5061921;28;20032;-73
2023/01/02 05:01:46;;;;;;;26.55;14.10;;;11.30;99.90;;;;;;5047124;28;20040;-73
2023/01/02 05:04:11;;;;;;;22.80;13.65;;;11.30;99.90;;;;;;5062119;28;20044;-73
2023/01/02 05:06:37;;;;;;;24.52;13.02;;;11.30;99.90;;;;;;5046700;28;20033;-73
2023/01/02 05:09:02;;;;;;;25.75;13.20;;;11.30;99.90;;;;;;5048475;28;20045;-74
2023/01/02 05:11:28;;;;;;;23.50;12.55;;;11.30;99.90;;;;;;5058616;28;20691;-74
2023/01/02 05:13:53;;;;;;;21.65;12.20;;;11.30;99.90;;;;;;5061608;28;20064;-74
2023/01/02 05:16:19;;;;;;;24.20;12.32;;;11.30;99.90;;;;;;5063221;28;20036;-74
2023/01/02 05:18:45;;;;;;;19.10;11.20;;;11.30;99.90;;;;;;5040319;28;20474;-74
2023/01/02 05:24:00;;;;;;;21.33;11.35;;;11.30;99.90;;;;;;5062778;28;20056;-74
2023/01/02 05:26:26;;;;;;;24.83;11.35;;;11.30;99.90;;;;;;5063209;28;20445;-74
2023/01/02 05:28:53;;;;;;;21.02;10.43;;;11.30;99.90;;;;;;5061301;28;20028;-74
2023/01/02 05:31:19;;;;;;;20.17;10.25;;;11.30;99.90;;;;;;5061242;28;20028;-74
2023/01/02 05:33:48;;;;;;;18.17;9.57;;;11.30;99.90;;;;;;5058267;28;20130;-74
2023/01/02 05:36:14;;;;;;;17.40;9.18;;;11.30;99.90;;;;;;5057151;28;20114;-74
2023/01/02 05:38:40;;;;;;;18.83;9.77;;;11.30;99.90;;;;;;5062870;28;20041;-74
2023/01/02 05:41:06;;;;;;;15.88;9.15;;;11.30;99.90;;;;;;5059976;28;20055;-74
2023/01/02 05:43:34;;;;;;;18.05;9.23;;;11.30;99.90;;;;;;5062117;28;20404;-74
2023/01/02 05:46:17;;;;;;;19.98;9.43;;;11.30;99.90;;;;;;5060186;28;20113;-74
2023/01/02 05:48:44;;;;;;;16.27;9.38;;;11.30;99.90;;;;;;5028366;28;20059;-74
2023/01/02 05:51:12;;;;;;;17.02;9.68;;;11.30;99.90;;;;;;5045862;28;20442;-74
2023/01/02 05:53:38;;;;;;;15.63;9.27;;;11.30;99.90;;;;;;5061333;28;20048;-74
2023/01/02 05:56:07;;;;;;;17.52;10.30;;;11.20;99.90;;;;;;5046263;28;20041;-74
2023/01/02 05:58:35;;;;;;;18.20;9.70;;;11.30;99.90;;;;;;5063002;28;20048;-74
2023/01/02 06:01:13;;;;;;;24.30;10.35;;;11.20;99.90;;;;;;5047449;28;20048;-74
2023/01/02 06:03:38;;;;;;;17.20;8.90;;;11.20;99.90;;;;;;5064217;28;20076;-73
2023/01/02 06:06:05;;;;;;;16.60;9.05;;;11.30;99.90;;;;;;5062217;28;20082;-74
2023/01/02 06:08:31;;;;;;;14.95;8.18;;;11.30;99.90;;;;;;5064343;28;20033;-74
2023/01/02 06:10:57;;;;;;;16.85;8.60;;;11.30;99.90;;;;;;5066821;28;20417;-73
2023/01/02 06:13:23;;;;;;;18.23;8.55;;;11.30;99.90;;;;;;5048603;28;20045;-74
2023/01/02 06:15:49;;;;;;;12.20;6.75;;;11.30;99.90;;;;;;5050248;28;20551;-74
2023/01/02 06:18:14;;;;;;;16.77;8.15;;;11.30;99.90;;;;;;5064453;28;20032;-74
2023/01/02 06:20:40;;;;;;;14.13;7.72;;;11.30;99.90;;;;;;5046195;28;20392;-74
2023/01/02 06:23:05;;;;;;;12.40;7.63;;;11.30;99.90;;;;;;5060158;28;20554;-74
2023/01/02 06:25:32;;;;;;;14.93;7.35;;;11.30;99.90;;;;;;5060925;28;20167;-74
2023/01/02 06:27:58;;;;;;;12.35;7.13;;;11.30;99.90;;;;;;5048280;28;20390;-74
2023/01/02 06:30:23;;;;;;;12.23;7.65;;;11.30;99.90;;;;;;5060467;28;20493;-74
2023/01/02 06:32:49;;;;;;;13.07;7.32;;;11.30;99.90;;;;;;5059135;28;20039;-74
2023/01/02 06:35:15;;;;;;;12.88;8.02;;;11.30;99.90;;;;;;5049614;28;20059;-74
2023/01/02 06:37:43;;;;;;;15.13;8.57;;;11.30;99.90;;;;;;5049329;28;20501;-74
2023/01/02 06:40:10;;;;;;;14.57;8.90;;;11.30;99.90;;;;;;5065465;28;20041;-74
2023/01/02 06:42:36;;;;;;;15.57;8.82;;;11.20;99.90;;;;;;5064250;28;20057;-74
2023/01/02 06:45:02;;;;;;;15.52;8.95;;;11.30;99.90;;;;;;5064983;28;20050;-74
2023/01/02 06:47:28;;;;;;;15.63;9.63;;;11.20;99.90;;;;;;5048820;28;20078;-74
2023/01/02 06:49:53;;;;;;;14.02;8.40;;;11.20;99.90;;;;;;5064321;28;20086;-74
2023/01/02 06:52:19;;;;;;;15.02;8.93;;;11.20;99.90;;;;;;5063576;28;20094;-74
2023/01/02 06:54:44;;;;;;;11.52;7.50;;;11.20;99.90;;;;;;5063294;28;20029;-74
2023/01/02 06:57:10;;;;;;;13.85;8.02;;;11.10;99.90;;;;;;5048622;28;20032;-74
2023/01/02 06:59:35;;;;;;;14.52;8.63;;;11.10;99.90;;;;;;5042333;28;20114;-74
2023/01/02 07:02:01;;;;;;;14.52;8.95;;;11.00;99.90;;;;;;5061845;28;20036;-76
2023/01/02 07:04:27;;;;;;;13.63;8.30;;;11.00;99.90;;;;;;5048539;28;20473;-75
2023/01/02 07:06:53;;;;;;;17.35;9.40;;;10.90;99.90;;;;;;5060277;28;20044;-75
2023/01/02 07:09:19;;;;;;;16.45;8.52;;;10.80;99.90;;;;;;5063324;28;20043;-75
2023/01/02 07:11:44;;;;;;;12.73;7.28;;;10.70;99.90;;;;;;5065076;28;20606;-75
2023/01/02 07:14:10;;;;;;;12.13;6.10;;;10.60;99.90;;;;;;5064993;28;20036;-75
2023/01/02 07:16:35;;;;;;;12.68;5.72;;;10.30;99.90;;;;;;5061317;28;20045;-75
2023/01/02 07:19:01;;;;;;;13.25;5.78;;;10.10;99.90;;;;;;5046100;28;20040;-75
2023/01/02 07:21:27;;;;;;;9.75;5.00;;;9.90;99.90;;;;;;5064413;28;20036;-75
2023/01/02 07:23:52;;;;;;;8.68;4.30;;;9.80;99.90;;;;;;5065281;28;20042;-75
2023/01/02 07:26:18;;;;;;;9.07;4.25;;;9.70;99.90;;;;;;5060495;28;20116;-75
2023/01/02 07:28:45;;;;;;;10.30;4.35;;;9.60;99.90;;;;;;5062108;28;20036;-75
2023/01/02 07:31:13;;;;;;;6.85;3.20;;;9.40;99.90;;;;;;5064245;28;20439;-75
2023/01/02 07:33:39;;;;;;;5.40;2.50;;;9.30;99.90;;;;;;5064935;28;20045;-75
2023/01/02 07:36:11;;;;;;;3.30;1.80;;;9.20;99.90;;;;;;5064900;28;20044;-75
2023/01/02 07:38:38;;;;;;;4.40;1.90;;;9.10;99.90;;;;;;5046165;28;20036;-75
2023/01/02 07:41:14;;;;;;;3.47;1.70;;;8.90;99.90;;;;;;5064212;28;20056;-74
2023/01/02 07:43:41;;;;;;;2.08;1.70;;;8.80;99.90;;;;;;5048156;28;20041;-75
2023/01/02 07:46:07;;;;;;;5.40;2.05;;;8.70;99.90;;;;;;5061345;28;20428;-75
2023/01/02 07:48:32;;;;;;;3.45;2.13;;;8.60;99.90;;;;;;5060415;28;20052;-75
2023/01/02 07:51:00;;;;;;;5.05;2.67;;;8.60;99.90;;;;;;5063870;28;20036;-74
2023/01/02 07:53:26;;;;;;;4.13;2.20;;;8.60;99.90;;;;;;5059592;28;20045;-75
2023/01/02 07:55:56;;;;;;;6.10;2.67;;;8.50;99.90;;;;;;5077927;28;20032;-75
2023/01/02 07:58:22;;;;;;;4.65;2.58;;;8.50;99.90;;;;;;5059459;28;20031;-74
2023/01/02 08:00:47;;;;;;;7.72;2.92;;;8.50;99.90;;;;;;5079939;28;20040;-75
2023/01/02 08:03:13;;;;;;;6.28;2.70;;;8.50;99.90;;;;;;5062110;28;20515;-75
2023/01/02 08:05:39;;;;;;;8.02;2.80;;;8.50;99.90;;;;;;5063823;28;20124;-75
2023/01/02 08:08:04;;;;;;;6.97;2.90;;;8.50;99.90;;;;;;5064806;28;20119;-75
2023/01/02 08:10:30;;;;;;;5.63;2.80;;;8.50;99.90;;;;;;5046384;28;20066;-75
2023/01/02 08:12:56;;;;;;;4.93;2.50;;;8.50;99.90;;;;;;5049060;28;20045;-74
2023/01/02 08:15:23;;;;;;;7.07;2.80;;;8.50;99.90;;;;;;5063062;28;20029;-75
2023/01/02 08:17:48;;;;;;;6.88;2.92;;;8.50;99.90;;;;;;5062996;28;20557;-75
2023/01/02 08:20:14;;;;;;;9.00;2.88;;;8.40;99.90;;;;;;5061448;28;20044;-75
2023/01/02 08:22:40;;;;;;;5.70;3.08;;;8.50;99.90;;;;;;5045265;28;20040;-75
2023/01/02 08:25:06;;;;;;;9.32;3.60;;;8.40;99.90;;;;;;5078365;28;20044;-75
2023/01/02 08:27:32;;;;;;;5.80;3.13;;;8.40;99.90;;;;;;5054877;28;20048;-75
2023/01/02 08:29:58;;;;;;;7.57;3.15;;;8.50;99.90;;;;;;5047030;28;20090;-75
2023/01/02 08:32:24;;;;;;;5.63;3.10;;;8.50;99.90;;;;;;5062866;28;20032;-75
2023/01/02 08:34:49;;;;;;;9.48;3.47;;;8.40;99.90;;;;;;5063313;28;20051;-75
2023/01/02 08:37:15;;;;;;;7.78;3.38;;;8.40;99.90;;;;;;5053823;28;20041;-75
2023/01/02 08:39:41;;;;;;;6.65;3.08;;;8.40;99.90;;;;;;5061500;28;20032;-74
2023/01/02 08:42:06;;;;;;;8.90;3.08;;;8.40;99.90;;;;;;5061864;28;20114;-74
2023/01/02 08:44:33;;;;;;;8.82;3.15;;;8.40;99.90;;;;;;5077434;28;20040;-75
2023/01/02 08:46:59;;;;;;;7.07;3.03;;;8.50;99.90;;;;;;5063027;28;20419;-75
2023/01/02 08:49:24;;;;;;;7.60;3.03;;;8.50;99.90;;;;;;5055017;28;20040;-75
2023/01/02 08:51:50;;;;;;;8.05;3.10;;;8.50;99.90;;;;;;5057672;28;20689;-75
2023/01/02 08:54:16;;;;;;;8.90;3.40;;;8.50;99.90;;;;;;5054915;28;20045;-75
2023/01/02 08:56:41;;;;;;;5.70;3.35;;;8.50;99.90;;;;;;5056604;28;20123;-75
2023/01/02 08:59:09;;;;;;;7.13;3.47;;;8.50;99.90;;;;;;5056006;28;20040;-75
2023/01/02 09:01:36;;;;;;;7.82;3.30;;;8.50;99.90;;;;;;5058484;28;20451;-75
2023/01/02 09:04:02;;;;;;;5.60;3.13;;;8.50;99.90;;;;;;5055577;28;20068;-74
2023/01/02 09:06:30;;;;;;;7.90;3.65;;;8.50;99.90;;;;;;5067662;28;20049;-75
2023/01/02 09:08:57;;;;;;;5.47;2.90;;;8.40;99.90;;;;;;5057837;28;20129;-74
2023/01/02 09:11:29;;;;;;;7.05;3.10;;;8.40;99.90;;;;;;5054307;28;20470;-74
2023/01/02 09:13:56;;;;;;;6.85;3.38;;;8.40;99.90;;;;;;5057284;28;20515;-75
2023/01/02 09:16:22;;;;;;;9.73;3.83;;;8.40;99.90;;;;;;5052379;28;20041;-75
2023/01/02 09:18:49;;;;;;;7.53;3.67;;;8.50;99.90;;;;;;5055425;28;20040;-75
2023/01/02 09:21:14;;;;;;;8.25;3.90;;;8.50;99.90;;;;;;5038221;28;20047;-75
2023/01/02 09:23:40;;;;;;;8.05;3.75;;;8.40;99.90;;;;;;5054732;28;20044;-75
2023/01/02 09:26:07;;;;;;;8.00;3.88;;;8.40;99.90;;;;;;5055271;28;20577;-75
2023/01/02 09:28:34;;;;;;;8.98;3.35;;;8.50;99.90;;;;;;5039870;28;20151;-75
2023/01/02 09:31:07;;;;;;;6.95;3.15;;;8.50;99.90;;;;;;5056963;28;20049;-75
2023/01/02 09:33:33;;;;;;;8.40;4.35;;;8.50;99.90;;;;;;5058215;28;20045;-75
2023/01/02 09:36:04;;;;;;;7.55;3.08;;;8.50;99.90;;;;;;5058296;28;20033;-75
2023/01/02 09:38:30;;;;;;;7.28;3.30;;;8.50;99.90;;;;;;5061429;28;20057;-75
2023/01/02 09:40:58;;;;;;;8.23;3.53;;;8.50;99.90;;;;;;5044081;28;20048;-75
2023/01/02 09:43:32;;;;;;;12.10;3.65;;;8.50;99.90;;;;;;5060679;28;20066;-75
2023/01/02 09:46:01;;;;;;;13.80;4.33;;;8.50;99.90;;;;;;5061074;28;20055;-74
2023/01/02 09:48:32;;;;;;;12.40;3.88;;;8.50;99.90;;;;;;5042170;28;20301;-75
2023/01/02 09:50:57;;;;;;;10.77;4.38;;;8.50;99.90;;;;;;5061111;28;20048;-75
2023/01/02 09:53:24;;;;;;;10.50;4.10;;;8.50;99.90;;;;;;5044431;28;20040;-75
2023/01/02 09:56:07;;;;;;;11.63;4.70;;;8.60;99.90;;;;;;5058465;28;20063;-74
2023/01/02 09:59:03;;;;;;;10.50;3.75;;;8.60;99.90;;;;;;5047387;28;20420;-75
2023/01/02 10:01:36;;;;;;;11.50;4.55;;;8.60;99.90;;;;;;5061938;28;20040;-75
2023/01/02 10:04:12;;;;;;;11.10;4.47;;;8.60;99.90;;;;;;5044213;28;20088;-74
2023/01/02 10:06:55;;;;;;;14.07;4.18;;;8.60;99.90;;;;;;5048039;28;20044;-75
2023/01/02 10:09:41;;;;;;;12.65;4.72;;;8.60;99.90;;;;;;5067139;28;20060;-74
2023/01/02 10:12:39;;;;;;;11.55;4.32;;;8.60;99.90;;;;;;5066394;28;20442;-75
2023/01/02 10:15:12;;;;;;;10.38;4.30;;;8.60;99.90;;;;;;5065017;28;20073;-74
2023/01/02 10:17:45;;;;;;;9.23;4.00;;;8.60;99.90;;;;;;5049004;28;20094;-74
2023/01/02 10:20:13;;;;;;;8.85;3.67;;;8.60;99.90;;;;;;5050522;28;20036;-74
2023/01/02 10:22:58;;;;;;;11.10;4.07;;;8.60;99.90;;;;;;5064254;28;20040;-74
2023/01/02 10:25:38;;;;;;;11.35;3.90;;;8.50;99.90;;;;;;5050595;28;20044;-74
2023/01/02 10:28:22;;;;;;;11.25;4.32;;;8.50;99.90;;;;;;5063063;28;20094;-74
2023/01/02 10:31:02;;;;;;;12.77;4.22;;;8.50;99.90;;;;;;5066724;28;20055;-74
2023/01/02 10:34:01;;;;;;;12.57;4.53;;;8.50;99.90;;;;;;5050484;28;20094;-75
2023/01/02 10:36:34;;;;;;;12.18;4.15;;;8.50;99.90;;;;;;5066390;28;20044;-75
2023/01/02 10:39:06;;;;;;;12.73;4.03;;;8.60;99.90;;;;;;5066280;28;20033;-74
2023/01/02 10:41:33;;;;;;;11.27;3.95;;;8.50;99.90;;;;;;5065500;28;20091;-75
2023/01/02 10:44:11;;;;;;;6.35;2.90;;;8.50;99.90;;;;;;5060604;28;20056;-75
2023/01/02 10:46:40;;;;;;;6.22;2.90;;;8.60;99.90;;;;;;5066894;28;20044;-74
2023/01/02 10:49:11;;;;;;;7.25;3.13;;;8.60;99.90;;;;;;5050627;28;20110;-74
2023/01/02 10:51:44;;;;;;;5.65;3.00;;;8.70;99.90;;;;;;5049591;28;20055;-75
2023/01/02 10:54:10;;;;;;;7.22;3.20;;;8.70;99.90;;;;;;5047588;28;20044;-74
2023/01/02 10:56:39;;;;;;;11.00;3.47;;;8.70;99.90;;;;;;5065942;28;20123;-74
2023/01/02 10:59:20;;;;;;;7.53;3.28;;;8.70;99.90;;;;;;5065957;28;20085;-74
2023/01/02 11:01:55;;;;;;;9.13;3.08;;;8.80;99.90;;;;;;5065801;28;20048;-74
2023/01/02 11:04:26;;;;;;;9.38;2.95;;;8.80;99.90;;;;;;5067047;28;20041;-74
2023/01/02 11:07:02;;;;;;;8.57;3.25;;;8.80;99.90;;;;;;5064529;28;20048;-74
2023/01/02 11:09:34;;;;;;;10.32;3.22;;;8.90;99.90;;;;;;5060829;28;20389;-74
2023/01/02 11:12:06;;;;;;;11.05;3.60;;;8.90;99.90;;;;;;5063729;28;20093;-75
2023/01/02 11:14:34;;;;;;;6.95;2.88;;;9.00;99.90;;;;;;5061364;28;20040;-75
2023/01/02 11:17:21;;;;;;;7.70;3.15;;;9.00;99.90;;;;;;5061242;28;20044;-75
2023/01/02 11:19:53;;;;;;;7.65;2.67;;;9.00;99.90;;;;;;5060791;28;20047;-75
2023/01/02 11:22:22;;;;;;;9.20;2.83;;;9.00;99.90;;;;;;5065016;28;20044;-75
2023/01/02 11:24:54;;;;;;;9.07;3.33;;;9.00;99.90;;;;;;5060667;28;20508;-75
2023/01/02 11:27:21;;;;;;;8.45;3.13;;;9.10;99.90;;;;;;5060044;28;20089;-75
2023/01/02 11:29:49;;;;;;;6.82;2.70;;;9.10;99.90;;;;;;5064480;28;20209;-75
2023/01/02 11:32:41;;;;;;;8.45;2.92;;;9.20;99.90;;;;;;5062525;28;20037;-75
2023/01/02 11:35:33;;;;;;;6.95;2.85;;;9.30;99.90;;;;;;5056509;28;20056;-76
2023/01/02 11:38:00;;;;;;;6.05;3.00;;;9.50;99.90;;;;;;5059067;28;20080;-75
2023/01/02 11:40:28;;;;;;;6.47;2.72;;;9.50;99.90;;;;;;5060046;28;20049;-75
2023/01/02 11:45:44;;;;;;;9.15;3.03;;;9.50;99.90;;;;;;5060998;28;20057;-75
2023/01/02 11:48:16;;;;;;;7.07;2.80;;;9.50;99.90;;;;;;5062214;28;20127;-75
2023/01/02 11:50:42;;;;;;;8.98;3.08;;;9.60;99.90;;;;;;5060874;28;20381;-75
2023/01/02 11:53:11;;;;;;;11.88;3.80;;;9.60;99.90;;;;;;5058254;28;20123;-75
2023/01/02 11:55:45;;;;;;;7.63;3.22;;;9.50;99.90;;;;;;5058683;28;20040;-75
2023/01/02 11:58:29;;;;;;;7.47;3.00;;;9.50;99.90;;;;;;5060653;28;20441;-75
2023/01/02 12:01:03;;;;;;;8.80;2.90;;;9.40;99.90;;;;;;5059435;28;20052;-76
2023/01/02 12:03:31;;;;;;;;;;;9.40;99.90;;;;;;5057125;28;20040;-75
2023/01/02 12:06:09;;;;;;;7.93;3.30;;;9.30;99.90;;;;;;5061793;28;20351;-75
2023/01/02 12:08:57;;;;;;;7.03;2.83;;;9.30;99.90;;;;;;5059321;28;20098;-75
2023/01/02 12:11:53;;;;;;;10.27;2.65;;;9.30;99.90;;;;;;5055535;28;20632;-75
2023/01/02 12:14:38;;;;;;;9.15;3.13;;;9.20;99.90;;;;;;5059738;28;20040;-75
2023/01/02 12:17:06;;;;;;;7.97;3.15;;;9.20;99.90;;;;;;5057907;28;20068;-75
2023/01/02 12:19:37;;;;;;;12.70;3.40;;;9.20;99.90;;;;;;5056554;28;20102;-75
2023/01/02 12:22:21;;;;;;;9.77;2.70;;;9.20;99.90;;;;;;5059551;28;20064;-76
2023/01/02 12:24:54;;;;;;;6.63;2.53;;;9.20;99.90;;;;;;5058924;28;20125;-75
2023/01/02 12:27:41;;;;;;;14.18;3.33;;;9.20;99.90;;;;;;5060899;28;20121;-75
2023/01/02 12:30:14;;;;;;;9.82;2.92;;;9.30;99.90;;;;;;5041880;28;20047;-75
2023/01/02 12:32:51;;;;;;;15.02;4.00;;;9.30;99.90;;;;;;5059306;28;20043;-75
2023/01/02 12:35:40;;;;;;;11.13;3.50;;;9.30;99.90;;;;;;5059171;28;20043;-75
2023/01/02 12:38:07;;;;;;;8.32;3.15;;;9.30;99.90;;;;;;5057966;28;20117;-75
2023/01/02 12:40:42;;;;;;;10.45;3.15;;;9.40;99.90;;;;;;5050271;28;20067;-75
2023/01/02 12:43:33;;;;;;;8.15;3.35;;;9.30;99.90;;;;;;5059327;28;20500;-76
2023/01/02 12:45:59;;;;;;;10.70;2.72;;;9.30;99.90;;;;;;5060756;28;20056;-75
2023/01/02 12:48:38;;;;;;;13.48;3.95;;;9.30;99.90;;;;;;5064379;28;20049;-75
2023/01/02 12:51:10;;;;;;;10.68;3.40;;;9.30;99.90;;;;;;5063027;28;20044;-75
2023/01/02 12:54:00;;;;;;;12.20;3.33;;;9.30;99.90;;;;;;5066205;28;20051;-75
2023/01/02 12:56:37;;;;;;;9.25;3.25;;;9.30;99.90;;;;;;5062309;28;20093;-75
2023/01/02 12:59:18;;;;;;;13.15;3.15;;;9.20;99.90;;;;;;5065246;28;20040;-75
2023/01/02 13:01:57;;;;;;;11.27;3.13;;;9.30;99.90;;;;;;5064526;28;20093;-75
2023/01/02 13:04:47;;;;;;;13.65;3.05;;;9.30;99.90;;;;;;5046995;28;20048;-75
2023/01/02 13:07:19;;;;;;;10.85;2.65;;;9.30;99.90;;;;;;5063666;28;20459;-75